Time;durP1;ratioP1;P1;durP2;ratioP2;P2;SDS_P1;SDS_P2;PMS_P1;PMS_P2;Temp;Humidity;BMP_temperature;BMP_pressure;BME280_temperature;BME280_humidity;BME280_pressure;Samples;Min_cycle;Max_cycle;Signal;HPM_P1;HPM_P2
2022/10/19 00:01:09;;;;;;;;;10.67;9.33;;;;;17.51;78.73;101543.31;5098051;27;45520;-63
2022/10/19 00:03:35;;;;;;;;;11.00;11.00;;;;;17.52;78.53;101544.22;5095574;27;45782;-63
2022/10/19 00:06:17;;;;;;;;;10.67;9.67;;;;;17.52;78.88;101541.56;5098123;27;45395;-63
2022/10/19 00:08:43;;;;;;;;;11.00;10.67;;;;;17.55;78.34;101539.59;5096710;27;45541;-63
2022/10/19 00:11:09;;;;;;;;;11.33;10.67;;;;;17.55;78.67;101536.09;5090755;27;45458;-62
2022/10/19 00:13:34;;;;;;;;;11.33;11.33;;;;;17.56;78.50;101535.97;5097751;27;45359;-62
2022/10/19 00:16:01;;;;;;;;;11.00;10.00;;;;;17.56;78.38;101530.66;5098549;27;45416;-60
2022/10/19 00:18:26;;;;;;;;;5.67;5.67;;;;;17.56;78.42;101530.66;5097124;27;45594;-61
2022/10/19 00:20:51;;;;;;;;;12.67;9.00;;;;;17.57;78.38;101534.19;5097314;27;59429;-61
2022/10/19 00:23:17;;;;;;;;;13.00;12.00;;;;;17.57;78.13;101528.84;5096982;27;45369;-61
2022/10/19 00:25:42;;;;;;;;;11.00;11.00;;;;;17.56;78.50;101530.66;5095920;27;45690;-63
2022/10/19 00:28:07;;;;;;;;;10.00;10.00;;;;;17.56;77.96;101520.03;5097552;27;45433;-62
2022/10/19 00:30:37;;;;;;;;;14.67;14.00;;;;;17.56;78.20;101520.03;5092333;27;45400;-63
2022/10/19 00:33:03;;;;;;;;;17.67;15.00;;;;;17.55;78.42;101528.09;5097300;27;45450;-63
2022/10/19 00:35:28;;;;;;;;;12.33;12.33;;;;;17.57;77.93;101518.22;5097571;27;45602;-64
2022/10/19 00:37:54;;;;;;;;;11.33;11.33;;;;;17.55;78.13;101518.31;5097029;27;45523;-63
2022/10/19 00:40:19;;;;;;;;;12.33;11.33;;;;;17.56;78.14;101505.88;5095540;27;46905;-64
2022/10/19 00:42:44;;;;;;;;;9.75;9.75;;;;;17.57;77.97;101495.16;5093761;27;45463;-63
2022/10/19 00:45:16;;;;;;;;;12.00;12.00;;;;;17.57;78.32;101487.19;5078394;27;45565;-62
2022/10/19 00:47:43;;;;;;;;;11.67;11.67;;;;;17.56;78.53;101484.59;5093143;27;45461;-62
2022/10/19 00:50:09;;;;;;;;;13.33;13.00;;;;;17.56;78.18;101488.09;5097440;27;45588;-63
2022/10/19 00:52:35;;;;;;;;;12.00;12.00;;;;;17.58;78.06;101490.69;5097230;27;45433;-62
2022/10/19 00:55:01;;;;;;;;;15.00;14.33;;;;;17.56;78.11;101482.78;5097666;27;45419;-61
2022/10/19 00:57:30;;;;;;;;;14.00;12.67;;;;;17.56;78.07;101482.78;5097759;27;45502;-64
2022/10/19 00:59:57;;;;;;;;;12.33;12.33;;;;;17.53;77.99;101472.31;5095785;27;45378;-63
2022/10/19 01:02:22;;;;;;;;;10.33;10.33;;;;;17.52;78.16;101469.75;5093941;27;45610;-61
2022/10/19 01:04:50;;;;;;;;;14.00;12.67;;;;;17.53;77.82;101474.97;5093656;27;45445;-59
2022/10/19 01:07:17;;;;;;;;;12.67;12.67;;;;;17.55;77.84;101489.06;5096977;27;45467;-63
2022/10/19 01:09:42;;;;;;;;;10.67;10.67;;;;;17.55;77.78;101480.22;5097084;27;45419;-60
2022/10/19 01:12:08;;;;;;;;;10.33;10.33;;;;;17.55;78.08;101477.56;5097075;27;45363;-62
2022/10/19 01:15:15;;;;;;;;;11.25;10.75;;;;;17.55;77.78;101486.41;5097445;27;45394;-62
2022/10/19 01:18:00;;;;;;;;;9.33;9.33;;;;;17.53;77.85;101480.28;5097113;27;45418;-61
2022/10/19 01:20:47;;;;;;;;;11.00;10.67;;;;;17.52;77.95;101475.06;5089870;27;45468;-59
2022/10/19 01:23:31;;;;;;;;;9.33;9.33;;;;;17.50;78.20;101479.59;5097147;27;45495;-61
2022/10/19 01:26:35;;;;;;;;;9.67;9.33;;;;;17.48;77.94;101471.66;5097239;27;45429;-61
2022/10/19 01:29:37;;;;;;;;;12.33;11.00;;;;;17.47;77.97;101469.09;5054030;28;45498;-59
2022/10/19 01:32:06;;;;;;;;;12.00;10.33;;;;;17.49;77.78;101464.56;5096897;27;45504;-60
2022/10/19 01:34:34;;;;;;;;;14.67;13.33;;;;;17.49;77.80;101469.88;5096879;27;45476;-62
2022/10/19 01:37:43;;;;;;;;;12.33;10.67;;;;;17.45;77.93;101464.72;5097135;27;45436;-60
2022/10/19 01:40:26;;;;;;;;;9.67;9.67;;;;;17.42;77.67;101456.03;5053390;28;45625;-62
2022/10/19 01:43:10;;;;;;;;;11.00;11.00;;;;;17.43;77.68;101460.41;5052750;28;46094;-62
2022/10/19 01:45:50;;;;;;;;;10.33;10.00;;;;;17.42;77.81;101466.66;5078465;27;45493;-61
2022/10/19 01:48:21;;;;;;;;;11.00;11.00;;;;;17.44;77.67;101456.81;5095036;27;45456;-62
2022/10/19 01:51:02;;;;;;;;;10.00;10.00;;;;;17.43;77.70;101455.94;5095935;27;46292;-60
2022/10/19 01:53:33;;;;;;;;;11.33;9.33;;;;;17.44;77.78;101452.34;5094920;27;45348;-60
2022/10/19 01:56:01;;;;;;;;;10.67;9.33;;;;;17.43;77.97;101447.09;5096012;27;45429;-62
2022/10/19 01:58:31;;;;;;;;;10.00;8.33;;;;;17.44;77.85;101446.19;5087623;27;45504;-60
2022/10/19 02:01:03;;;;;;;;;11.33;11.33;;;;;17.45;77.45;101442.56;5096686;27;45429;-58
2022/10/19 02:03:29;;;;;;;;;11.67;11.67;;;;;17.43;77.64;101437.31;5095569;27;46195;-62
2022/10/19 02:05:56;;;;;;;;;10.67;10.67;;;;;17.42;77.78;101434.75;5080424;27;45429;-61
2022/10/19 02:08:25;;;;;;;;;10.00;10.00;;;;;17.39;77.69;101427.78;5090264;27;45481;-60
2022/10/19 02:10:50;;;;;;;;;8.00;8.00;;;;;17.39;77.82;101430.44;5083743;27;45516;-60
2022/10/19 02:13:19;;;;;;;;;11.00;10.00;;;;;17.40;77.51;101429.50;5096381;27;45463;-60
2022/10/19 02:15:49;;;;;;;;;10.33;10.33;;;;;17.42;77.64;101427.63;5096942;27;45446;-61
2022/10/19 02:18:23;;;;;;;;;12.00;11.00;;;;;17.40;77.56;101421.53;5088485;27;45388;-60
2022/10/19 02:20:49;;;;;;;;;12.33;12.00;;;;;17.37;77.75;101416.38;5077147;27;45514;-60
2022/10/19 02:23:19;;;;;;;;;12.33;12.33;;;;;17.36;77.64;101416.47;5091767;27;45490;-62
2022/10/19 02:25:44;;;;;;;;;11.00;11.00;;;;;17.37;78.02;101404.88;5075668;28;45466;-62
2022/10/19 02:28:10;;;;;;;;;11.00;11.00;;;;;17.34;77.82;101403.22;5075313;27;45480;-62
2022/10/19 02:30:35;;;;;;;;;10.00;9.00;;;;;17.34;77.91;101395.25;5078534;27;45361;-61
2022/10/19 02:33:01;;;;;;;;;11.33;11.33;;;;;17.32;77.98;101397.13;5099539;27;45809;-61
2022/10/19 02:35:26;;;;;;;;;10.67;10.67;;;;;17.29;78.06;101394.63;5099377;27;45425;-61
2022/10/19 02:37:52;;;;;;;;;12.00;12.00;;;;;17.27;78.01;101391.19;5079024;27;45402;-64
2022/10/19 02:40:17;;;;;;;;;11.67;11.67;;;;;17.23;77.92;101384.31;5089791;27;45652;-63
2022/10/19 02:42:51;;;;;;;;;13.00;13.00;;;;;17.21;78.25;101386.19;5096525;27;46097;-61
2022/10/19 02:45:23;;;;;;;;;11.67;11.00;;;;;17.23;78.26;101386.97;5099047;27;45401;-60
2022/10/19 02:47:54;;;;;;;;;10.33;10.33;;;;;17.19;77.94;101382.72;5099066;27;45429;-61
2022/10/19 02:50:21;;;;;;;;;10.00;7.67;;;;;17.14;77.88;101371.47;5099623;27;45568;-63
2022/10/19 02:52:46;;;;;;;;;11.00;10.33;;;;;17.16;78.21;101369.59;5093415;27;45436;-61
2022/10/19 02:55:11;;;;;;;;;12.67;11.67;;;;;17.14;78.24;101358.19;5098807;27;45401;-61
2022/10/19 02:57:37;;;;;;;;;11.67;10.67;;;;;17.17;78.13;101363.38;5098154;27;45535;-60
2022/10/19 03:00:04;;;;;;;;;10.67;10.00;;;;;17.21;78.45;101362.25;5099459;27;45557;-59
2022/10/19 03:02:29;;;;;;;;;10.67;10.67;;;;;17.22;77.86;101355.97;5091871;27;45446;-61
2022/10/19 03:04:55;;;;;;;;;13.00;11.67;;;;;17.22;77.96;101367.50;5094592;27;45410;-63
2022/10/19 03:07:20;;;;;;;;;10.33;10.33;;;;;17.21;77.89;101362.25;5098729;27;53085;-60
2022/10/19 03:09:46;;;;;;;;;9.67;9.67;;;;;17.19;78.05;101356.16;5084940;27;45508;-63
2022/10/19 03:12:12;;;;;;;;;11.33;11.33;;;;;17.15;77.91;101354.59;5098239;27;58790;-61
2022/10/19 03:14:38;;;;;;;;;10.00;10.00;;;;;17.19;78.13;101353.50;5098791;27;45442;-62
2022/10/19 03:17:03;;;;;;;;;11.67;11.33;;;;;17.19;77.95;101348.16;5093440;27;45366;-61
2022/10/19 03:19:29;;;;;;;;;10.00;10.00;;;;;17.20;77.87;101340.13;5090335;27;45396;-61
2022/10/19 03:21:54;;;;;;;;;9.33;9.33;;;;;17.20;77.57;101341.94;5098300;27;46558;-60
2022/10/19 03:24:21;;;;;;;;;11.33;10.67;;;;;17.18;77.77;101344.66;5098895;27;45404;-60
2022/10/19 03:26:47;;;;;;;;;8.33;8.33;;;;;17.10;77.79;101341.53;5096819;27;45670;-60
2022/10/19 03:29:12;;;;;;;;;10.67;10.67;;;;;17.10;78.32;101332.72;5098856;27;45628;-60
2022/10/19 03:31:37;;;;;;;;;9.00;9.00;;;;;17.10;77.89;101332.72;5098117;27;46130;-59
2022/10/19 03:34:03;;;;;;;;;11.67;10.00;;;;;17.10;78.12;101335.38;5098580;27;45366;-63
2022/10/19 03:36:30;;;;;;;;;10.67;10.33;;;;;17.07;78.66;101336.38;5098638;27;45428;-60
2022/10/19 03:38:58;;;;;;;;;12.67;12.67;;;;;17.06;78.17;101324.03;5110496;27;45678;-61
2022/10/19 03:41:27;;;;;;;;;14.33;13.00;;;;;17.08;78.43;101327.44;5098200;27;47939;-62
2022/10/19 03:43:52;;;;;;;;;11.00;11.00;;;;;17.08;78.02;101327.44;5097339;27;45323;-64
2022/10/19 03:46:18;;;;;;;;;15.67;14.00;;;;;17.07;78.20;101322.25;5098887;27;45359;-61
2022/10/19 03:48:44;;;;;;;;;11.33;11.33;;;;;17.09;77.85;101323.03;5097086;27;45530;-61
2022/10/19 03:51:12;;;;;;;;;10.67;10.67;;;;;17.08;78.33;101318.63;5097057;27;47939;-62
2022/10/19 03:53:39;;;;;;;;;8.67;8.67;;;;;17.12;78.05;101320.22;5098399;27;45408;-61
2022/10/19 03:56:12;;;;;;;;;10.67;10.67;;;;;17.15;78.11;101317.38;5098499;27;45505;-61
2022/10/19 03:58:39;;;;;;;;;12.00;11.33;;;;;17.15;78.12;101315.59;5098626;27;45435;-59
2022/10/19 04:01:20;;;;;;;;;14.00;12.33;;;;;17.13;78.18;101314.78;5096205;27;46240;-63
2022/10/19 04:03:46;;;;;;;;;12.33;12.33;;;;;17.13;78.10;101317.44;5095664;27;45500;-62
2022/10/19 04:06:14;;;;;;;;;16.00;14.33;;;;;17.13;78.35;101319.25;5098067;27;45458;-62
2022/10/19 04:08:40;;;;;;;;;14.00;13.00;;;;;17.14;78.13;101318.31;5091330;27;45394;-60
2022/10/19 04:11:09;;;;;;;;;10.67;9.67;;;;;17.13;78.38;101319.25;5077608;27;45473;-63
2022/10/19 04:13:35;;;;;;;;;10.67;9.67;;;;;17.11;78.03;101310.50;5080274;27;45479;-60
2022/10/19 04:16:01;;;;;;;;;15.33;13.67;;;;;17.10;78.20;101319.41;5086546;27;45383;-62
2022/10/19 04:18:26;;;;;;;;;14.33;13.33;;;;;17.06;78.36;101320.50;5094794;27;45626;-62
2022/10/19 04:20:56;;;;;;;;;8.67;8.67;;;;;17.04;78.65;101323.25;5097712;27;46375;-63
2022/10/19 04:23:21;;;;;;;;;13.33;13.33;;;;;17.02;78.49;101319.81;5097485;27;45483;-63
2022/10/19 04:25:47;;;;;;;;;10.67;10.67;;;;;16.99;78.40;101312.84;5096223;27;45626;-60
2022/10/19 04:28:12;;;;;;;;;12.33;11.67;;;;;16.98;78.59;101324.41;5097750;27;45421;-63
2022/10/19 04:30:37;;;;;;;;;10.67;10.67;;;;;17.01;78.58;101315.44;5096808;27;46929;-60
2022/10/19 04:33:03;;;;;;;;;15.00;12.33;;;;;17.03;78.39;101312.69;5096986;27;45428;-60
2022/10/19 04:35:28;;;;;;;;;10.67;10.67;;;;;17.06;78.21;101312.53;5095731;27;45342;-60
2022/10/19 04:37:53;;;;;;;;;11.67;11.00;;;;;17.07;78.29;101315.13;5097024;27;47137;-63
2022/10/19 04:40:18;;;;;;;;;14.67;12.33;;;;;17.07;77.68;101311.59;5096392;27;48016;-60
2022/10/19 04:42:44;;;;;;;;;10.33;10.33;;;;;17.06;77.83;101315.19;5097297;27;45508;-63
2022/10/19 04:45:09;;;;;;;;;12.00;11.67;;;;;17.05;77.91;101311.66;5097289;27;45435;-63
2022/10/19 04:47:35;;;;;;;;;8.33;8.33;;;;;17.04;78.27;101312.63;5093050;27;45389;-60
2022/10/19 04:50:00;;;;;;;;;13.00;12.67;;;;;17.04;77.83;101304.66;5093575;27;54831;-62
2022/10/19 04:52:26;;;;;;;;;15.67;14.67;;;;;17.01;78.03;101302.16;5097513;27;45350;-63
2022/10/19 04:54:51;;;;;;;;;12.33;11.67;;;;;17.03;78.22;101297.59;5096323;27;45377;-62
2022/10/19 04:57:16;;;;;;;;;17.00;15.33;;;;;17.03;78.22;101289.63;5097200;27;45460;-63
2022/10/19 04:59:42;;;;;;;;;14.67;14.67;;;;;17.05;78.20;101284.25;5093557;27;45988;-60
2022/10/19 05:02:07;;;;;;;;;17.67;13.33;;;;;17.04;78.34;101269.25;5085970;27;45465;-63
2022/10/19 05:04:32;;;;;;;;;14.67;13.00;;;;;17.03;78.04;101270.16;5096052;27;45432;-60
2022/10/19 05:06:57;;;;;;;;;13.33;13.33;;;;;16.97;78.41;101272.19;5097203;27;45628;-60
2022/10/19 05:09:23;;;;;;;;;13.00;13.00;;;;;16.96;78.51;101270.50;5084575;27;46311;-59
2022/10/19 05:11:49;;;;;;;;;13.00;12.33;;;;;16.99;78.26;101259.69;5077690;27;45489;-60
2022/10/19 05:14:15;;;;;;;;;15.67;15.67;;;;;16.99;78.12;101259.69;5082419;27;45485;-61
2022/10/19 05:16:40;;;;;;;;;14.00;14.00;;;;;16.98;77.89;101258.00;5089213;27;45370;-62
2022/10/19 05:19:05;;;;;;;;;16.00;16.00;;;;;16.98;78.32;101259.78;5077408;27;46022;-59
2022/10/19 05:21:31;;;;;;;;;16.67;15.33;;;;;16.97;78.51;101272.19;5090518;27;51633;-63
2022/10/19 05:23:56;;;;;;;;;15.67;15.33;;;;;16.98;78.34;101260.66;5084284;27;45480;-61
2022/10/19 05:26:24;;;;;;;;;15.00;15.00;;;;;16.92;78.17;101255.63;5090924;27;45361;-59
2022/10/19 05:29:00;;;;;;;;;14.67;13.67;;;;;16.91;78.19;101264.53;5095521;27;46450;-60
2022/10/19 05:31:30;;;;;;;;;14.67;14.67;;;;;16.85;78.31;101259.56;5092627;27;45527;-61
2022/10/19 05:33:56;;;;;;;;;16.67;15.67;;;;;16.86;78.29;101263.06;5091493;27;45547;-64
2022/10/19 05:36:24;;;;;;;;;18.00;15.00;;;;;16.86;78.26;101245.31;5096601;27;45361;-64
2022/10/19 05:38:51;;;;;;;;;11.00;11.00;;;;;16.88;78.15;101246.09;5094943;27;45560;-66
2022/10/19 05:41:17;;;;;;;;;13.00;12.33;;;;;16.89;78.16;101237.19;5084965;27;45464;-60
2022/10/19 05:43:44;;;;;;;;;14.33;14.00;;;;;16.92;78.27;101238.81;5082492;27;45418;-63
2022/10/19 05:46:13;;;;;;;;;21.00;17.33;;;;;16.93;77.94;101232.59;5095006;27;45680;-58
2022/10/19 05:48:40;;;;;;;;;15.67;15.00;;;;;16.88;78.01;101227.50;5096552;27;46400;-63
2022/10/19 05:51:07;;;;;;;;;16.33;16.00;;;;;16.91;78.12;101226.50;5092698;27;45459;-59
2022/10/19 05:53:33;;;;;;;;;15.00;14.67;;;;;16.88;77.82;101230.16;5088120;27;45459;-64
2022/10/19 05:55:59;;;;;;;;;13.33;13.33;;;;;16.89;78.27;101231.88;5096389;27;45441;-62
2022/10/19 05:58:24;;;;;;;;;15.33;14.00;;;;;16.85;77.94;101226.81;5094301;27;45607;-67
2022/10/19 06:00:55;;;;;;;;;13.67;12.67;;;;;16.82;77.70;101235.81;5078545;27;45380;-64
2022/10/19 06:03:21;;;;;;;;;16.00;14.00;;;;;16.81;78.25;101241.19;5095552;27;45413;-66
2022/10/19 06:05:49;;;;;;;;;16.67;16.67;;;;;16.82;78.05;101238.47;5095697;27;45552;-65
2022/10/19 06:08:19;;;;;;;;;13.67;13.67;;;;;16.78;78.02;101236.88;5095786;27;46206;-63
2022/10/19 06:10:45;;;;;;;;;13.00;13.00;;;;;16.75;78.34;101237.00;5096278;27;45372;-64
2022/10/19 06:13:12;;;;;;;;;15.33;15.33;;;;;16.74;78.44;101241.47;5087697;27;45391;-63
2022/10/19 06:15:39;;;;;;;;;15.67;14.67;;;;;16.77;78.38;101237.84;5080095;27;45365;-66
2022/10/19 06:18:11;;;;;;;;;10.67;10.67;;;;;16.81;78.35;101235.88;5083125;27;45398;-65
2022/10/19 06:20:39;;;;;;;;;16.67;16.67;;;;;16.83;77.83;101234.84;5085743;27;45391;-62
2022/10/19 06:23:05;;;;;;;;;15.00;15.00;;;;;16.81;77.84;101242.03;5093210;27;45547;-65
2022/10/19 06:25:31;;;;;;;;;15.33;14.33;;;;;16.83;77.72;101236.66;5094221;27;45608;-62
2022/10/19 06:27:58;;;;;;;;;15.67;15.67;;;;;16.84;77.52;101241.88;5095895;27;45477;-64
2022/10/19 06:30:23;;;;;;;;;15.33;14.33;;;;;16.85;77.55;101234.78;5095164;27;45347;-63
2022/10/19 06:32:48;;;;;;;;;16.00;14.00;;;;;16.84;77.38;101239.22;5095466;27;45454;-64
2022/10/19 06:35:15;;;;;;;;;15.67;13.67;;;;;16.84;77.63;101239.22;5094264;27;45577;-67
2022/10/19 06:37:40;;;;;;;;;16.00;15.00;;;;;16.84;77.79;101238.38;5095188;27;45452;-66
2022/10/19 06:40:06;;;;;;;;;17.00;16.00;;;;;16.85;77.54;101237.44;5094838;27;45536;-63
2022/10/19 06:42:31;;;;;;;;;19.67;17.67;;;;;16.85;77.89;101234.78;5095267;27;45409;-63
2022/10/19 06:44:57;;;;;;;;;17.67;17.00;;;;;16.88;77.36;101224.00;5095255;27;45752;-62
2022/10/19 06:47:22;;;;;;;;;18.00;17.00;;;;;16.85;77.50;101227.69;5094180;27;50009;-65
2022/10/19 06:49:47;;;;;;;;;17.67;17.67;;;;;16.87;77.73;101232.88;5095364;27;45491;-66
2022/10/19 06:52:13;;;;;;;;;14.33;13.33;;;;;16.84;77.12;101225.09;5094980;27;45401;-63
2022/10/19 06:54:38;;;;;;;;;14.67;14.67;;;;;16.80;77.86;101227.03;5095381;27;45416;-64
2022/10/19 06:57:03;;;;;;;;;14.00;12.00;;;;;16.81;77.93;101226.09;5094891;27;45444;-66
2022/10/19 06:59:28;;;;;;;;;14.67;12.33;;;;;16.78;77.69;101228.91;5094887;27;45453;-64
2022/10/19 07:01:54;;;;;;;;;15.33;15.33;;;;;16.76;77.73;101238.72;5094889;27;53557;-65
2022/10/19 07:04:19;;;;;;;;;18.00;16.00;;;;;16.79;77.54;101227.97;5094918;27;45340;-62
2022/10/19 07:06:44;;;;;;;;;14.67;13.67;;;;;16.78;77.78;101228.91;5089973;27;52524;-63
2022/10/19 07:09:10;;;;;;;;;15.67;15.67;;;;;16.76;77.57;101223.66;5085047;27;45505;-65
2022/10/19 07:11:35;;;;;;;;;13.00;12.33;;;;;16.76;77.64;101222.78;5094667;27;45477;-66
2022/10/19 07:14:00;;;;;;;;;13.67;13.67;;;;;16.73;77.31;101217.63;5094808;27;45635;-64
2022/10/19 07:16:26;;;;;;;;;13.67;13.67;;;;;16.76;77.72;101221.00;5095152;27;45462;-65
2022/10/19 07:18:52;;;;;;;;;16.00;15.67;;;;;16.77;77.19;101212.13;5096778;27;45418;-64
2022/10/19 07:21:19;;;;;;;;;14.33;13.00;;;;;16.76;77.79;101209.50;5098161;27;45504;-66
2022/10/19 07:23:46;;;;;;;;;16.33;13.33;;;;;16.76;77.42;101215.69;5098408;27;45644;-65
2022/10/19 07:26:18;;;;;;;;;17.67;17.67;;;;;16.81;77.65;101209.31;5098168;27;45475;-64
2022/10/19 07:28:46;;;;;;;;;16.67;14.00;;;;;16.78;77.28;101213.81;5097933;27;45406;-65
2022/10/19 07:31:16;;;;;;;;;14.67;14.33;;;;;16.79;77.70;101212.03;5098220;27;45477;-63
2022/10/19 07:33:42;;;;;;;;;18.33;17.00;;;;;16.79;76.94;101214.69;5097952;27;45380;-64
2022/10/19 07:36:09;;;;;;;;;14.33;14.33;;;;;16.77;77.36;101214.78;5098080;27;46110;-62
2022/10/19 07:38:35;;;;;;;;;14.33;13.67;;;;;16.83;77.05;101218.91;5097905;27;45447;-64
2022/10/19 07:41:07;;;;;;;;;15.00;14.00;;;;;16.87;76.82;101227.56;5098211;27;45412;-65
2022/10/19 07:43:33;;;;;;;;;15.00;13.00;;;;;16.93;76.88;101216.66;5098020;27;45438;-62
2022/10/19 07:46:04;;;;;;;;;17.33;17.33;;;;;16.98;76.66;101219.94;5097421;27;45397;-62
2022/10/19 07:48:30;;;;;;;;;16.33;15.00;;;;;17.02;76.71;101210.84;5097728;27;45418;-64
2022/10/19 07:50:55;;;;;;;;;17.00;14.33;;;;;17.07;76.79;101214.13;5096227;27;45421;-65
2022/10/19 07:53:21;;;;;;;;;16.67;15.67;;;;;17.04;76.63;101211.63;5097740;27;45561;-63
2022/10/19 07:55:47;;;;;;;;;18.67;17.33;;;;;17.05;76.50;101215.13;5097416;27;45862;-65
2022/10/19 07:58:12;;;;;;;;;16.33;15.33;;;;;17.02;76.50;101215.31;5097796;27;45489;-62
2022/10/19 08:00:38;;;;;;;;;19.33;17.33;;;;;17.02;76.72;101220.63;5097728;27;45353;-64
2022/10/19 08:03:04;;;;;;;;;15.67;15.67;;;;;17.07;76.85;101215.94;5097987;27;45638;-62
2022/10/19 08:05:32;;;;;;;;;16.33;16.33;;;;;17.11;76.76;101209.50;5097378;27;50416;-65
2022/10/19 08:07:57;;;;;;;;;21.67;20.67;;;;;17.12;76.48;101206.75;5082801;27;45415;-66
2022/10/19 08:10:22;;;;;;;;;18.00;18.00;;;;;17.15;76.65;101208.41;5097788;27;45435;-63
2022/10/19 08:12:48;;;;;;;;;14.67;13.67;;;;;17.17;76.53;101217.16;5097393;27;45473;-61
2022/10/19 08:15:14;;;;;;;;;15.33;15.33;;;;;17.23;76.38;101220.34;5096861;27;47204;-62
2022/10/19 08:17:39;;;;;;;;;15.00;14.00;;;;;17.29;76.37;101213.84;5097868;27;45428;-63
2022/10/19 08:20:05;;;;;;;;;19.67;18.67;;;;;17.31;76.15;101211.09;5096972;27;47615;-63
2022/10/19 08:22:31;;;;;;;;;16.33;14.33;;;;;17.36;76.30;101206.41;5097249;27;45526;-63
2022/10/19 08:24:56;;;;;;;;;17.33;17.33;;;;;17.43;75.90;101207.78;5096831;27;45915;-61
2022/10/19 08:27:22;;;;;;;;;20.00;16.33;;;;;17.49;75.74;101199.47;5097127;27;45477;-63
2022/10/19 08:29:47;;;;;;;;;17.33;15.00;;;;;17.55;75.61;101200.94;5096921;27;45494;-62
2022/10/19 08:32:12;;;;;;;;;16.00;16.00;;;;;17.59;75.42;101191.84;5097031;27;45401;-62
2022/10/19 08:34:38;;;;;;;;;13.33;13.33;;;;;17.61;75.07;101197.94;5096978;27;45468;-63
2022/10/19 08:37:03;;;;;;;;;14.33;12.33;;;;;17.64;75.06;101192.44;5097071;27;45441;-62
2022/10/19 08:39:29;;;;;;;;;31.67;27.33;;;;;17.69;75.07;101197.50;5097090;27;45747;-64
2022/10/19 08:42:17;;;;;;;;;12.33;12.00;;;;;17.70;75.03;101194.75;5095446;27;45468;-61
2022/10/19 08:44:52;;;;;;;;;14.00;13.67;;;;;17.72;75.11;101186.69;5096725;27;46372;-64
2022/10/19 08:47:27;;;;;;;;;15.33;15.00;;;;;17.78;74.81;101192.53;5095351;27;45901;-61
2022/10/19 08:49:52;;;;;;;;;19.00;17.00;;;;;17.80;74.66;101189.81;5096813;27;45377;-64
2022/10/19 08:52:23;;;;;;;;;13.33;12.67;;;;;17.79;74.66;101188.13;5096729;27;45459;-62
2022/10/19 08:54:57;;;;;;;;;15.00;13.67;;;;;17.77;74.69;101187.31;5096376;27;46305;-61
2022/10/19 08:57:41;;;;;;;;;17.00;16.33;;;;;17.75;74.69;101191.84;5096369;27;45505;-62
2022/10/19 09:00:14;;;;;;;;;14.00;12.67;;;;;17.77;74.56;101198.78;5096560;27;45405;-64
2022/10/19 09:02:55;;;;;;;;;19.67;16.33;;;;;17.76;74.65;101190.88;5096590;27;45379;-62
2022/10/19 09:05:38;;;;;;;;;14.67;14.67;;;;;17.73;74.55;101191.06;5096276;27;45458;-64
2022/10/19 09:08:04;;;;;;;;;17.33;15.00;;;;;17.73;74.86;101186.63;5081655;27;45729;-61
2022/10/19 09:10:37;;;;;;;;;17.33;16.33;;;;;17.72;75.05;101184.03;5096478;27;45450;-65
2022/10/19 09:13:41;;;;;;;;;16.67;16.67;;;;;17.73;74.60;101175.97;5096577;27;45375;-64
2022/10/19 09:16:14;;;;;;;;;16.67;15.33;;;;;17.71;74.87;101164.56;5093712;27;46291;-61
2022/10/19 09:18:41;;;;;;;;;20.67;17.00;;;;;17.76;74.94;101162.50;5096442;27;45793;-62
2022/10/19 09:21:15;;;;;;;;;13.00;13.00;;;;;17.78;74.71;101159.75;5096101;27;45365;-64
2022/10/19 09:23:43;;;;;;;;;17.67;17.67;;;;;17.79;75.24;101165.03;5096225;27;45398;-62
2022/10/19 09:26:17;;;;;;;;;20.00;19.67;;;;;17.82;74.91;101158.66;5096195;27;45396;-64
2022/10/19 09:28:52;;;;;;;;;17.33;14.33;;;;;17.86;75.02;101160.19;5096086;27;45461;-64
2022/10/19 09:31:39;;;;;;;;;16.00;14.33;;;;;17.94;74.92;101157.09;5096340;27;45409;-65
2022/10/19 09:34:22;;;;;;;;;16.00;15.00;;;;;17.98;74.28;101151.53;5095780;27;45609;-62
2022/10/19 09:36:56;;;;;;;;;15.00;14.00;;;;;18.03;74.55;101159.25;5095719;27;46336;-63
2022/10/19 09:39:24;;;;;;;;;15.33;13.67;;;;;18.05;74.06;101155.56;5095906;27;45401;-62
2022/10/19 09:41:55;;;;;;;;;16.00;16.00;;;;;18.11;74.12;101157.00;5094815;27;45559;-62
2022/10/19 09:44:23;;;;;;;;;21.67;21.67;;;;;18.18;73.73;101155.69;5094469;27;45599;-64
2022/10/19 09:47:01;;;;;;;;;16.00;15.00;;;;;18.28;73.73;101151.53;5096117;27;46463;-63
2022/10/19 09:49:45;;;;;;;;;18.00;15.67;;;;;18.32;73.76;101157.53;5095706;27;45427;-65
2022/10/19 09:52:46;;;;;;;;;19.00;16.00;;;;;18.33;73.83;101152.13;5095831;27;45526;-62
2022/10/19 09:55:12;;;;;;;;;12.00;12.00;;;;;18.37;73.09;101146.63;5073562;27;45583;-64
2022/10/19 09:57:45;;;;;;;;;15.00;13.00;;;;;18.38;73.01;101151.00;5095659;27;45491;-63
2022/10/19 10:00:21;;;;;;;;;14.33;13.00;;;;;18.43;72.84;101148.91;5095694;27;45359;-66
2022/10/19 10:02:54;;;;;;;;;16.67;15.33;;;;;18.41;72.54;101138.38;5095763;27;45445;-63
2022/10/19 10:05:30;;;;;;;;;14.33;14.33;;;;;18.50;72.99;101140.47;5095717;27;45354;-62
2022/10/19 10:07:56;;;;;;;;;16.00;15.67;;;;;18.54;72.77;101141.16;5080940;27;45407;-62
2022/10/19 10:10:41;;;;;;;;;15.00;13.67;;;;;18.54;72.52;101118.03;5094278;27;45431;-66
2022/10/19 10:13:18;;;;;;;;;12.00;12.00;;;;;18.54;72.50;101117.19;5095636;27;45464;-61
2022/10/19 10:15:48;;;;;;;;;12.67;12.67;;;;;18.60;72.29;101130.13;5095689;27;45434;-64
2022/10/19 10:18:15;;;;;;;;;13.00;13.00;;;;;18.61;72.42;101128.31;5095586;27;45521;-61
2022/10/19 10:21:46;;;;;;;;;12.67;12.67;;;;;18.65;72.34;101121.88;5095065;27;45404;-65
2022/10/19 10:24:11;;;;;;;;;21.00;18.67;;;;;18.69;72.45;101121.56;5049342;28;45467;-62
2022/10/19 10:26:45;;;;;;;;;18.67;18.67;;;;;18.74;71.91;101116.84;5052441;28;45612;-65
2022/10/19 10:29:20;;;;;;;;;14.67;14.67;;;;;18.80;72.47;101120.09;5082012;27;45983;-63
2022/10/19 10:31:59;;;;;;;;;11.67;9.67;;;;;18.85;71.76;101102.84;5095241;27;45411;-63
2022/10/19 10:34:32;;;;;;;;;16.67;13.67;;;;;18.86;71.13;101109.91;5095254;27;45492;-64
2022/10/19 10:36:58;;;;;;;;;12.67;12.67;;;;;18.87;70.83;101098.28;5095190;27;45426;-66
2022/10/19 10:39:27;;;;;;;;;12.67;12.67;;;;;18.87;70.58;101098.28;5094922;27;45377;-64
2022/10/19 10:41:53;;;;;;;;;15.33;15.33;;;;;18.90;71.21;101091.91;5095094;27;45469;-62
2022/10/19 10:44:25;;;;;;;;;18.00;16.33;;;;;18.96;71.46;101094.19;5095078;27;45476;-62
2022/10/19 10:47:02;;;;;;;;;52.33;43.33;;;;;19.01;71.28;101097.44;5095009;27;45377;-62
2022/10/19 10:49:33;;;;;;;;;17.67;15.67;;;;;19.03;70.95;101087.53;5094745;27;46286;-61
2022/10/19 10:52:04;;;;;;;;;14.00;14.00;;;;;19.07;70.38;101086.38;5095638;27;45446;-63
2022/10/19 10:54:31;;;;;;;;;14.33;14.00;;;;;19.12;71.27;101084.28;5098425;27;45486;-63
2022/10/19 10:57:17;;;;;;;;;15.67;15.33;;;;;19.18;70.62;101072.34;5098368;27;45529;-66
2022/10/19 11:00:10;;;;;;;;;11.00;11.00;;;;;19.22;70.39;101078.38;5098291;27;45480;-65
2022/10/19 11:03:01;;;;;;;;;13.33;13.00;;;;;19.24;69.83;101080.00;5098357;27;45440;-65
2022/10/19 11:05:34;;;;;;;;;13.33;13.33;;;;;19.27;70.34;101071.78;5098063;27;45498;-63
2022/10/19 11:08:11;;;;;;;;;13.00;13.00;;;;;19.34;70.16;101072.22;5093588;27;45563;-64
2022/10/19 11:11:00;;;;;;;;;15.33;15.00;;;;;19.39;69.35;101060.31;5096242;27;46245;-63
2022/10/19 11:13:35;;;;;;;;;20.00;16.67;;;;;19.45;69.60;101053.75;5097688;27;45513;-62
2022/10/19 11:16:03;;;;;;;;;18.00;16.33;;;;;19.56;69.78;101053.03;5096618;27;45448;-65
2022/10/19 11:18:35;;;;;;;;;13.50;12.25;;;;;19.59;69.19;101050.16;5098297;27;45631;-64
2022/10/19 11:21:06;;;;;;;;;15.25;13.75;;;;;19.61;68.54;101043.78;5097926;27;46335;-63